Terminal Aerodrome Forecast
Issued by NWS

Home | Current Version | Previous Version | Text Only | Print | Product List | Glossary Off
Versions: 1 2 3 4 5 6 7 8 9 10 11 12 13

000
FTUS43 KGRB 191700
TAFCWA
TAF
KCWA 191736Z 1918/2018 19011KT P6SM FEW050 BKN080
     FM200300 18006KT P6SM SCT050 SCT090 BKN200=

USA.gov is the U.S. government's official web portal to all federal, state and local government web resources and services.